Colorado City Muni Information

FAA: AZC - ICAO: KAZC

Colorado City Muni (Airport) Location

State Arizona
County Mohave
City Colorado City
Colorado City Muni (Airport) is 3 miles southwest of Colorado City, AZ.
Latitude 36-57-35.8000N
Longitude 113-00-50.0000W
Elevation 4,873ft

Colorado City Muni METARs

METAR KAZC 251715Z AUTO 33012KT 10SM SCT120 06/M06 A3002 RMK AO2
Altimeter 30.02"
Temperature 6.0°C (42.8°F)
Wind 330° at 12KT
Clouds scattered at 12,000ft
Visibility 10.0mi
Time observed: 2022-01-25T17:15:00Z

Colorado City Muni (Airport) Details

Status Operational
Activation N/A
Ownership Public
Usage Public
Chart LAS VEGAS
ATC on-site No
Beacon schedule sunset-sunrise
Beacon color clear green

Colorado City Muni (Airport) Contacts

Owner TOWN OF COLORADO CITY
Owner address P.O. BOX70, COLORADO CITY, ARIZONA 86021
Owner phone (928) 875-2871
Manager LADELL BISTLINE
Manager address BOX 726, COLORADO CITY, AZ 86021
Manager phone (435) 616-2871

Colorado City Muni Radio Frequencies

Colorado City Muni (Airport) Radio Frequencies

UNICOM 122.7
Common traffic advisory frequency (CTAF) 122.7